createdAt,value
2022-11-09T00:01:30.030Z,45.20
2022-11-09T00:04:00.082Z,48.30
2022-11-09T00:06:29.584Z,47.90
2022-11-09T00:09:01.316Z,56.30
2022-11-09T00:11:32.439Z,56.70
2022-11-09T00:14:00.820Z,58.30
2022-11-09T00:16:28.837Z,56.80
2022-11-09T00:19:01.057Z,61.70
2022-11-09T00:21:28.966Z,58.80
2022-11-09T00:23:57.366Z,60.00
2022-11-09T00:26:26.427Z,58.10
2022-11-09T00:28:54.463Z,63.30
2022-11-09T00:31:24.384Z,55.50
2022-11-09T00:33:55.574Z,48.50
2022-11-09T00:38:58.636Z,54.10
2022-11-09T00:41:27.732Z,41.90
2022-11-09T00:43:56.728Z,44.70
2022-11-09T00:46:25.685Z,35.60
2022-11-09T00:48:56.169Z,39.60
2022-11-09T00:51:24.387Z,52.90
2022-11-09T00:53:55.951Z,56.10
2022-11-09T00:56:27.112Z,53.20
2022-11-09T00:58:56.275Z,51.40
2022-11-09T01:01:28.363Z,53.50
2022-11-09T01:03:57.656Z,54.10
2022-11-09T01:06:27.539Z,48.80
2022-11-09T01:08:55.944Z,46.80
2022-11-09T01:11:24.988Z,53.90
2022-11-09T01:13:54.579Z,54.70
2022-11-09T01:16:24.300Z,53.70
2022-11-09T01:18:54.657Z,45.80
2022-11-09T01:21:26.701Z,30.00
2022-11-09T01:23:56.054Z,29.00
2022-11-09T01:26:24.133Z,35.00
2022-11-09T01:28:52.763Z,30.60
2022-11-09T01:31:22.031Z,32.20
2022-11-09T01:33:50.392Z,32.00
2022-11-09T01:36:23.603Z,34.30
2022-11-09T01:38:51.579Z,26.60
2022-11-09T01:41:23.457Z,29.30
2022-11-09T01:44:18.047Z,28.40
2022-11-09T01:46:49.189Z,25.40
2022-11-09T01:49:41.073Z,22.50
2022-11-09T01:52:45.151Z,29.60
2022-11-09T01:55:21.507Z,24.80
2022-11-09T01:58:02.481Z,29.00
2022-11-09T02:00:37.775Z,25.30
2022-11-09T02:03:28.984Z,24.30
2022-11-09T02:05:58.895Z,23.70
2022-11-09T02:08:27.442Z,27.70
2022-11-09T02:11:08.974Z,25.70
2022-11-09T02:13:40.872Z,23.20
2022-11-09T02:16:13.096Z,19.10
2022-11-09T02:21:19.662Z,19.60
2022-11-09T02:23:49.341Z,19.40
2022-11-09T02:26:43.881Z,20.80
2022-11-09T02:29:17.432Z,22.30
2022-11-09T02:31:52.448Z,16.30
2022-11-09T02:34:23.118Z,21.40
2022-11-09T02:36:51.258Z,20.60
2022-11-09T02:42:02.761Z,14.30
2022-11-09T02:44:40.958Z,14.80
2022-11-09T02:47:09.819Z,17.30
2022-11-09T02:49:37.888Z,15.80
2022-11-09T02:52:06.062Z,17.40
2022-11-09T02:54:34.345Z,14.30
2022-11-09T02:57:02.614Z,18.80
2022-11-09T02:59:31.094Z,14.60
2022-11-09T03:01:59.779Z,23.90
2022-11-09T03:04:29.900Z,15.00
2022-11-09T03:06:59.338Z,15.60
2022-11-09T03:09:27.577Z,31.50
2022-11-09T03:11:58.001Z,16.20
2022-11-09T03:14:28.267Z,18.30
2022-11-09T03:16:57.891Z,16.10
2022-11-09T03:19:26.213Z,16.70
2022-11-09T03:21:54.341Z,18.50
2022-11-09T03:24:24.427Z,18.90
2022-11-09T03:26:53.700Z,18.70
2022-11-09T03:29:22.177Z,16.80
2022-11-09T03:31:50.153Z,14.30
2022-11-09T03:34:18.218Z,18.10
2022-11-09T03:36:46.288Z,15.50
2022-11-09T03:39:14.363Z,18.90
2022-11-09T03:41:42.641Z,16.30
2022-11-09T03:44:10.708Z,17.80
2022-11-09T03:46:38.779Z,13.80
2022-11-09T03:49:06.716Z,16.00
2022-11-09T03:51:34.762Z,18.10
2022-11-09T03:54:02.994Z,18.50
2022-11-09T03:56:31.267Z,15.20
2022-11-09T03:58:59.235Z,24.30
2022-11-09T04:01:27.249Z,21.40
2022-11-09T04:03:55.258Z,19.60
2022-11-09T04:06:23.369Z,19.40
2022-11-09T04:08:51.839Z,17.90
2022-11-09T04:11:20.410Z,17.60
2022-11-09T04:13:48.565Z,21.90
2022-11-09T04:16:16.622Z,16.10
2022-11-09T04:18:44.484Z,17.10
2022-11-09T04:21:12.590Z,20.60
2022-11-09T04:23:40.869Z,25.10
2022-11-09T04:26:10.660Z,20.60
2022-11-09T04:28:38.647Z,19.90
2022-11-09T04:31:06.823Z,21.60
2022-11-09T04:33:34.874Z,20.90
2022-11-09T04:36:05.137Z,22.80
2022-11-09T04:38:33.361Z,19.60
2022-11-09T04:41:02.762Z,17.10
2022-11-09T04:43:30.799Z,17.70
2022-11-09T04:46:03.265Z,18.40
2022-11-09T04:48:33.049Z,15.20
2022-11-09T04:51:06.793Z,13.60
2022-11-09T04:53:35.571Z,15.10
2022-11-09T04:56:05.484Z,17.90
2022-11-09T04:58:34.177Z,15.80
2022-11-09T05:01:10.216Z,16.50
2022-11-09T05:03:39.073Z,15.20
2022-11-09T05:06:26.959Z,17.00
2022-11-09T05:08:55.630Z,22.60
2022-11-09T05:11:24.037Z,20.40
2022-11-09T05:13:52.404Z,22.00
2022-11-09T05:16:21.132Z,20.90
2022-11-09T05:18:49.809Z,18.10
2022-11-09T05:21:18.865Z,27.30
2022-11-09T05:23:59.051Z,30.50
2022-11-09T05:26:31.457Z,25.40
2022-11-09T05:29:01.116Z,31.30
2022-11-09T05:31:30.139Z,27.90
2022-11-09T05:33:59.601Z,27.00
2022-11-09T05:36:29.410Z,26.80
2022-11-09T05:38:58.670Z,27.30
2022-11-09T05:41:32.524Z,31.90
2022-11-09T05:44:00.651Z,26.40
2022-11-09T05:46:29.337Z,25.40
2022-11-09T05:48:57.498Z,34.80
2022-11-09T05:51:25.887Z,32.20
2022-11-09T05:53:53.967Z,26.30
2022-11-09T05:56:22.018Z,19.00
2022-11-09T05:58:49.973Z,24.10
2022-11-09T06:01:21.511Z,37.30
2022-11-09T06:03:49.454Z,27.30
2022-11-09T06:06:17.960Z,23.40
2022-11-09T06:08:45.999Z,19.00
2022-11-09T06:11:18.475Z,16.60
2022-11-09T06:13:52.491Z,16.20
2022-11-09T06:16:21.035Z,18.70
2022-11-09T06:18:51.184Z,18.40
2022-11-09T06:21:23.472Z,16.60
2022-11-09T06:23:51.467Z,15.10
2022-11-09T06:26:19.475Z,15.10
2022-11-09T06:28:47.483Z,13.80
2022-11-09T06:31:17.074Z,16.10
2022-11-09T06:33:45.140Z,12.30
2022-11-09T06:36:13.802Z,14.60
2022-11-09T06:38:42.380Z,14.00
2022-11-09T06:41:11.097Z,16.50
2022-11-09T06:43:39.110Z,18.20
2022-11-09T06:46:07.536Z,20.60
2022-11-09T06:48:35.581Z,18.60
2022-11-09T06:51:05.425Z,17.60
2022-11-09T06:53:35.165Z,20.50
2022-11-09T06:56:04.949Z,17.80
2022-11-09T06:58:33.292Z,18.30
2022-11-09T07:01:09.947Z,19.90
2022-11-09T07:03:39.618Z,26.30
2022-11-09T07:06:10.099Z,18.90
2022-11-09T07:08:38.575Z,19.60
2022-11-09T07:11:09.143Z,22.90
2022-11-09T07:13:37.193Z,19.50
2022-11-09T07:16:08.569Z,20.40
2022-11-09T07:18:36.472Z,21.80
2022-11-09T07:21:08.877Z,18.70
2022-11-09T07:23:42.129Z,17.40
2022-11-09T07:26:10.230Z,15.80
2022-11-09T07:28:38.713Z,18.40
2022-11-09T07:31:07.315Z,19.40
2022-11-09T07:33:36.393Z,17.90
2022-11-09T07:36:05.895Z,15.60
2022-11-09T07:38:35.302Z,23.80
2022-11-09T07:41:03.270Z,24.10
2022-11-09T07:43:31.336Z,30.10
2022-11-09T07:46:04.196Z,33.20
2022-11-09T07:48:32.191Z,33.30
2022-11-09T07:51:03.424Z,34.10
2022-11-09T07:53:31.607Z,20.90
2022-11-09T07:56:01.627Z,21.30
2022-11-09T07:58:29.694Z,20.80
2022-11-09T08:00:59.381Z,18.30
2022-11-09T08:03:27.667Z,22.50
2022-11-09T08:05:57.922Z,26.80
2022-11-09T08:08:25.856Z,20.90
2022-11-09T08:10:56.246Z,18.00
2022-11-09T08:13:24.685Z,24.40
2022-11-09T08:15:52.647Z,20.10
2022-11-09T08:18:22.724Z,23.10
2022-11-09T08:20:51.344Z,23.10
2022-11-09T08:23:21.135Z,16.20
2022-11-09T08:25:51.170Z,21.50
2022-11-09T08:28:19.674Z,18.90
2022-11-09T08:30:56.017Z,25.70
2022-11-09T08:33:23.984Z,19.60
2022-11-09T08:35:53.317Z,19.50
2022-11-09T08:38:22.567Z,20.50
2022-11-09T08:40:50.703Z,18.40
2022-11-09T08:43:18.581Z,22.30
2022-11-09T08:45:47.601Z,23.40
2022-11-09T08:48:15.477Z,20.50
2022-11-09T08:50:43.348Z,18.10
2022-11-09T08:53:12.049Z,21.90
2022-11-09T08:55:40.003Z,16.40
2022-11-09T08:58:07.841Z,16.40
2022-11-09T09:00:35.736Z,15.60
2022-11-09T09:03:08.418Z,14.20
2022-11-09T09:05:36.849Z,18.90
2022-11-09T09:08:06.425Z,14.50
2022-11-09T09:10:37.909Z,18.70
2022-11-09T09:13:05.924Z,17.10
2022-11-09T09:15:33.751Z,16.80
2022-11-09T09:18:03.598Z,19.80
2022-11-09T09:20:32.795Z,17.90
2022-11-09T09:23:01.163Z,15.00
2022-11-09T09:25:28.990Z,14.80
2022-11-09T09:27:56.909Z,14.80
2022-11-09T09:30:25.400Z,18.00
2022-11-09T09:32:58.174Z,17.20
2022-11-09T09:35:27.776Z,19.00
2022-11-09T09:37:55.553Z,18.90
2022-11-09T09:40:35.032Z,17.50
2022-11-09T09:43:03.661Z,13.70
2022-11-09T09:45:35.828Z,19.60
2022-11-09T09:48:22.466Z,22.70
2022-11-09T09:50:56.276Z,21.10
2022-11-09T09:53:32.345Z,22.40
2022-11-09T09:56:16.952Z,16.10
2022-11-09T09:58:55.993Z,14.90
2022-11-09T10:01:28.261Z,15.00
2022-11-09T10:03:56.699Z,13.20
2022-11-09T10:06:46.649Z,12.60
2022-11-09T10:09:33.329Z,12.90
2022-11-09T10:12:22.699Z,20.90
2022-11-09T10:14:57.890Z,16.20
2022-11-09T10:17:32.013Z,19.10
2022-11-09T10:20:05.667Z,15.60
2022-11-09T10:22:33.418Z,19.40
2022-11-09T10:25:32.092Z,21.40
2022-11-09T10:28:13.585Z,16.30
2022-11-09T10:30:42.374Z,16.50
2022-11-09T10:33:10.341Z,18.60
2022-11-09T10:35:47.614Z,12.80
2022-11-09T10:38:21.681Z,15.40
2022-11-09T10:41:31.769Z,16.70
2022-11-09T10:44:19.769Z,19.20
2022-11-09T10:47:13.990Z,13.90
2022-11-09T10:50:39.631Z,18.50
2022-11-09T10:53:28.829Z,18.10
2022-11-09T10:56:21.838Z,20.40
2022-11-09T10:59:57.153Z,17.70
2022-11-09T11:02:46.462Z,15.70
2022-11-09T11:05:34.618Z,17.70
2022-11-09T11:08:27.277Z,24.80
2022-11-09T11:11:37.893Z,16.70
2022-11-09T11:14:35.409Z,23.00
2022-11-09T11:17:40.996Z,18.10
2022-11-09T11:20:29.986Z,19.30
2022-11-09T11:23:26.275Z,22.80
2022-11-09T11:26:30.800Z,17.60
2022-11-09T11:29:35.625Z,17.30
2022-11-09T11:32:23.672Z,17.10
2022-11-09T11:35:20.934Z,19.40
2022-11-09T11:38:26.370Z,15.80
2022-11-09T11:41:21.074Z,15.90
2022-11-09T11:44:35.694Z,16.40
2022-11-09T11:47:36.639Z,16.50
2022-11-09T11:50:44.779Z,18.10
2022-11-09T11:53:49.283Z,22.90
2022-11-09T11:56:44.569Z,19.90
2022-11-09T11:59:51.011Z,23.10
2022-11-09T12:03:15.915Z,25.00
2022-11-09T12:06:14.685Z,18.20
2022-11-09T12:09:16.813Z,20.70
2022-11-09T12:12:26.167Z,21.10
2022-11-09T12:15:39.516Z,19.30
2022-11-09T12:19:04.592Z,21.70
2022-11-09T12:22:18.172Z,19.00
2022-11-09T12:25:14.018Z,21.00
2022-11-09T12:28:03.571Z,20.60
2022-11-09T12:31:12.834Z,26.90
2022-11-09T12:34:44.320Z,26.10
2022-11-09T12:40:31.466Z,21.10
2022-11-09T12:43:34.726Z,23.20
2022-11-09T12:46:27.834Z,30.50
2022-11-09T12:49:35.865Z,20.00
2022-11-09T12:52:28.125Z,20.40
2022-11-09T12:55:17.639Z,22.40
2022-11-09T12:58:04.819Z,24.50
2022-11-09T13:00:54.918Z,23.00
2022-11-09T13:03:56.421Z,22.90
2022-11-09T13:07:09.057Z,23.60
2022-11-09T13:09:57.924Z,20.10
2022-11-09T13:12:48.551Z,24.80
2022-11-09T13:15:36.425Z,21.70
2022-11-09T13:18:30.448Z,19.10
2022-11-09T13:21:23.591Z,25.30
2022-11-09T13:24:34.282Z,21.00
2022-11-09T13:27:32.950Z,23.30
2022-11-09T13:30:25.309Z,18.40
2022-11-09T13:33:15.143Z,21.20
2022-11-09T13:36:08.007Z,30.50
2022-11-09T13:39:31.761Z,28.10
2022-11-09T13:42:35.148Z,27.60
2022-11-09T13:45:24.496Z,19.50
2022-11-09T13:48:39.182Z,21.60
2022-11-09T13:51:46.471Z,25.70
2022-11-09T13:54:37.735Z,29.80
2022-11-09T13:57:25.834Z,23.10
2022-11-09T14:00:30.911Z,32.00
2022-11-09T14:03:24.419Z,32.70
2022-11-09T14:06:13.720Z,21.90
2022-11-09T14:09:02.215Z,26.40
2022-11-09T14:12:10.393Z,22.00
2022-11-09T14:15:19.807Z,20.80
2022-11-09T14:18:10.732Z,20.90
2022-11-09T14:21:25.144Z,21.10
2022-11-09T14:24:22.276Z,49.70
2022-11-09T14:27:09.027Z,68.00
2022-11-09T14:29:59.292Z,51.90
2022-11-09T14:32:51.293Z,46.60
2022-11-09T14:35:39.325Z,53.30
2022-11-09T14:38:25.842Z,60.00
2022-11-09T14:41:25.628Z,56.90
2022-11-09T14:44:35.994Z,54.60
2022-11-09T14:47:29.993Z,61.80
2022-11-09T14:50:37.500Z,58.70
2022-11-09T14:53:33.367Z,49.40
2022-11-09T14:56:21.942Z,47.90
2022-11-09T14:59:14.335Z,40.60
2022-11-09T15:02:10.625Z,39.90
2022-11-09T15:05:02.965Z,39.10
2022-11-09T15:07:50.005Z,39.60
2022-11-09T15:10:38.083Z,37.20
2022-11-09T15:13:37.695Z,39.40
2022-11-09T15:16:30.973Z,52.00
2022-11-09T15:19:58.143Z,62.30
2022-11-09T15:22:57.998Z,53.00
2022-11-09T15:25:44.839Z,64.30
2022-11-09T15:28:32.371Z,75.10
2022-11-09T15:31:19.605Z,65.60
2022-11-09T15:34:25.204Z,67.20
2022-11-09T15:37:52.675Z,74.50
2022-11-09T15:40:39.206Z,73.40
2022-11-09T15:43:28.026Z,74.80
2022-11-09T15:46:18.491Z,78.90
2022-11-09T15:49:25.746Z,88.60
2022-11-09T15:52:12.863Z,86.40
2022-11-09T15:54:59.623Z,142.20
2022-11-09T15:57:46.327Z,173.90
2022-11-09T16:00:33.058Z,125.80
2022-11-09T16:03:20.208Z,150.60
2022-11-09T16:06:10.509Z,137.00
2022-11-09T16:08:57.208Z,166.30
2022-11-09T16:11:43.711Z,156.20
2022-11-09T16:14:32.438Z,162.80
2022-11-09T16:17:19.037Z,167.30
2022-11-09T16:20:06.799Z,171.10
2022-11-09T16:22:53.061Z,178.20
2022-11-09T16:25:40.104Z,170.70
2022-11-09T16:28:26.806Z,172.50
2022-11-09T16:31:13.675Z,166.00
2022-11-09T16:33:59.913Z,177.80
2022-11-09T16:36:51.061Z,180.50
2022-11-09T16:39:41.034Z,174.60
2022-11-09T16:42:27.725Z,194.60
2022-11-09T16:45:16.361Z,240.50
2022-11-09T16:48:10.426Z,269.00
2022-11-09T16:50:56.987Z,273.80
2022-11-09T16:53:43.975Z,259.70
2022-11-09T16:56:33.749Z,183.70
2022-11-09T16:59:20.478Z,122.50
2022-11-09T17:02:07.278Z,120.70
2022-11-09T17:04:57.426Z,127.80
2022-11-09T17:07:47.185Z,119.60
2022-11-09T17:10:33.559Z,114.20
2022-11-09T17:13:20.058Z,128.80
2022-11-09T17:16:12.858Z,122.40
2022-11-09T17:19:00.116Z,137.50
2022-11-09T17:21:47.085Z,125.80
2022-11-09T17:24:33.741Z,132.40
2022-11-09T17:27:20.328Z,137.40
2022-11-09T17:30:07.707Z,135.40
2022-11-09T17:32:54.688Z,134.20
2022-11-09T17:35:40.947Z,130.40
2022-11-09T17:38:31.475Z,129.20
2022-11-09T17:41:20.334Z,113.30
2022-11-09T17:44:06.630Z,103.30
2022-11-09T17:46:53.135Z,95.30
2022-11-09T17:49:39.881Z,89.50
2022-11-09T17:52:26.467Z,89.20
2022-11-09T17:55:13.475Z,75.90
2022-11-09T17:57:59.857Z,96.70
2022-11-09T18:00:46.549Z,97.70
2022-11-09T18:03:34.677Z,93.00
2022-11-09T18:06:23.847Z,92.90
2022-11-09T18:09:42.502Z,93.20
2022-11-09T18:12:19.896Z,85.70
2022-11-09T18:15:06.571Z,82.30
2022-11-09T18:17:53.352Z,81.80
2022-11-09T18:20:40.492Z,82.20
2022-11-09T18:23:26.865Z,77.10
2022-11-09T18:26:13.660Z,74.90
2022-11-09T18:29:00.571Z,72.20
2022-11-09T18:31:46.813Z,71.30
2022-11-09T18:34:33.805Z,77.60
2022-11-09T18:37:20.574Z,73.20
2022-11-09T18:40:07.939Z,61.10
2022-11-09T18:42:54.170Z,71.00
2022-11-09T18:45:40.896Z,65.00
2022-11-09T18:48:29.627Z,69.40
2022-11-09T18:51:16.181Z,71.10
2022-11-09T18:54:02.826Z,75.00
2022-11-09T18:56:49.399Z,69.10
2022-11-09T18:59:40.105Z,68.70
2022-11-09T19:02:26.790Z,68.40
2022-11-09T19:05:13.883Z,62.90
2022-11-09T19:08:00.243Z,60.70
2022-11-09T19:10:46.601Z,58.80
2022-11-09T19:13:33.260Z,56.80
2022-11-09T19:16:19.982Z,55.80
2022-11-09T19:19:07.153Z,53.40
2022-11-09T19:21:55.893Z,61.40
2022-11-09T19:24:42.713Z,57.20
2022-11-09T19:27:29.240Z,59.30
2022-11-09T19:30:15.961Z,61.20
2022-11-09T19:33:03.628Z,57.80
2022-11-09T19:36:23.144Z,60.60
2022-11-09T19:39:01.233Z,64.80
2022-11-09T19:41:48.139Z,58.50
2022-11-09T19:44:34.586Z,57.40
2022-11-09T19:47:20.910Z,55.80
2022-11-09T19:50:08.068Z,54.00
2022-11-09T19:52:55.556Z,54.40
2022-11-09T19:55:42.473Z,50.70
2022-11-09T19:58:28.855Z,53.40
2022-11-09T20:01:16.697Z,50.40
2022-11-09T20:04:07.677Z,44.20
2022-11-09T20:06:56.621Z,55.80
2022-11-09T20:09:43.223Z,51.70
2022-11-09T20:12:48.490Z,52.80
2022-11-09T20:15:34.732Z,54.70
2022-11-09T20:18:23.777Z,47.30
2022-11-09T20:21:11.049Z,48.40
2022-11-09T20:23:57.739Z,49.60
2022-11-09T20:26:44.499Z,44.40
2022-11-09T20:29:30.759Z,43.60
2022-11-09T20:32:21.482Z,42.30
2022-11-09T20:35:09.547Z,37.70
2022-11-09T20:37:56.146Z,39.70
2022-11-09T20:40:42.341Z,42.30
2022-11-09T20:43:29.823Z,36.40
2022-11-09T20:46:19.832Z,40.00
2022-11-09T20:49:06.260Z,38.60
2022-11-09T20:51:52.734Z,41.30
2022-11-09T20:54:39.112Z,42.10
2022-11-09T20:57:25.885Z,44.80
2022-11-09T21:00:12.963Z,51.10
2022-11-09T21:02:59.599Z,46.30
2022-11-09T21:05:50.958Z,44.70
2022-11-09T21:08:38.954Z,45.70
2022-11-09T21:11:28.800Z,45.10
2022-11-09T21:14:15.327Z,41.60
2022-11-09T21:17:01.540Z,44.90
2022-11-09T21:19:50.522Z,44.90
2022-11-09T21:22:55.120Z,41.60
2022-11-09T21:26:02.531Z,38.00
2022-11-09T21:29:07.599Z,40.10
2022-11-09T21:31:54.247Z,39.30
2022-11-09T21:34:41.000Z,40.10
2022-11-09T21:37:27.752Z,40.30
2022-11-09T21:40:14.251Z,38.40
2022-11-09T21:43:00.869Z,34.10
2022-11-09T21:45:50.334Z,36.80
2022-11-09T21:48:36.667Z,34.40
2022-11-09T21:51:23.726Z,40.40
2022-11-09T21:54:10.626Z,36.80
2022-11-09T21:56:57.711Z,31.20
2022-11-09T21:59:44.046Z,39.40
2022-11-09T22:02:30.651Z,32.90
2022-11-09T22:05:21.855Z,32.50
2022-11-09T22:08:10.127Z,34.90
2022-11-09T22:11:08.407Z,34.30
2022-11-09T22:14:13.507Z,31.10
2022-11-09T22:17:00.081Z,45.70
2022-11-09T22:20:05.360Z,29.20
2022-11-09T22:22:51.858Z,36.00
2022-11-09T22:25:37.970Z,36.40
2022-11-09T22:28:24.328Z,33.50
2022-11-09T22:31:11.088Z,34.60
2022-11-09T22:33:57.538Z,36.80
2022-11-09T22:36:44.177Z,36.10
2022-11-09T22:39:30.839Z,33.20
2022-11-09T22:42:17.312Z,33.90
2022-11-09T22:45:03.981Z,31.50
2022-11-09T22:47:50.565Z,32.30
2022-11-09T22:50:37.807Z,30.00
2022-11-09T22:53:24.106Z,28.40
2022-11-09T22:56:11.239Z,31.80
2022-11-09T22:58:57.709Z,32.00
2022-11-09T23:01:44.442Z,29.30
2022-11-09T23:04:30.975Z,33.70
2022-11-09T23:07:17.397Z,32.10
2022-11-09T23:10:04.753Z,29.30
2022-11-09T23:12:51.077Z,30.10
2022-11-09T23:15:37.505Z,29.10
2022-11-09T23:18:44.247Z,29.70
2022-11-09T23:21:36.653Z,32.30
2022-11-09T23:24:42.077Z,30.90
2022-11-09T23:27:28.437Z,30.00
2022-11-09T23:30:14.793Z,30.00
2022-11-09T23:33:01.926Z,30.40
2022-11-09T23:35:48.235Z,28.60
2022-11-09T23:38:36.298Z,28.70
2022-11-09T23:41:22.508Z,30.50
2022-11-09T23:44:08.864Z,30.10
2022-11-09T23:46:55.454Z,30.80
2022-11-09T23:49:41.965Z,28.70
2022-11-09T23:52:28.474Z,30.00
2022-11-09T23:55:16.456Z,27.90
2022-11-09T23:58:04.352Z,27.90
